Rapid City, SD (57703)

5:06 PM MDT on September 17, 2014 (GMT -0600)
Rapid Valley | Change Station
CLOSE
Current Station
Personal Weather Station
Location: Rapid City, SD
Elevation: 3176 ft
Nearby Weather Stations

Elev 3176 ft 44.07 °N, 103.16 °W | Updated 9 minutes ago

Clear
Clear
80.8 °F
Feels Like 80 °F
N
0.0
Wind Variable Wind from ESE

Today
High -- | Low -- °F
--% Chance of Precip.
Yesterday
High -- | Low -- °F
Precip. -- in
6:34 AM 6:59 PM
Waning Crescent, 32% visible
Pressure 29.87 in
Visibility 10.0 miles
Clouds Clear
Heat Index 80 °F
Dew Point 52 °F
Humidity 37%
Rainfall 0.00 in
Snow Depth 0 in
UV 0.7 out of 12
Pollen 5.50 out of 12
Air Quality Not available.
Flu Activity Not available.
METAR KRAP 172252Z 14010KT 10SM CLR 26/09 A2992 RMK AO2 SLP113 T02560089

More Conditions Fewer Conditions

Pressure 29.87 in
Visibility 10.0 miles
Clouds Clear
Heat Index 80 °F
Dew Point 52 °F
Humidity 37%
Rainfall 0.00 in
Snow Depth 0 in
UV 0.7 out of 12
Pollen 5.50 out of 12
Air Quality Not available.
Flu Activity Not available.
METAR KRAP 172252Z 14010KT 10SM CLR 26/09 A2992 RMK AO2 SLP113 T02560089

More Conditions Fewer Conditions

10-Day Weather Forecast

Almanac

Astronomy

Sep. 17, 2014 Rise Set
Actual Time 6:34 AM MDT 6:59 PM MDT
Civil Twilight 6:05 AM MDT 7:28 PM MDT
Nautical Twilight 5:31 AM MDT 8:02 PM MDT
Astronomical Twilight 4:55 AM MDT 8:37 PM MDT
Moon 12:27 AM MDT 3:19 PM MDT
Length of Visible Light 13h 23m
Length of Day
12h 25m
Tomorrow will be 3m 1s shorter.
Waning Crescent, 32% of the Moon is Illuminated
Today
Waning Crescent
Sep 24
New
Oct 1
First Quarter
Oct 8
Full
Oct 15
Last Quarter

Today's Extremes

State Highs State Lows

Community

WunderPhotos

Upload Photos

1,754,187 photos uploaded!

Nearby

Snow Depth

Station Depth Elevation
Blind Park 0 in 6890 ft

Earthquake Activity

City Distance Mag. Time & Date
No recent earthquake activity has been reported nearby.
Minimum magnitude displayed is 2.5.

Coastal Water Temperatures

Place Temperature
No Stations Reporting

Nearby Weather Stations